createdAt,value
2018-05-29T00:00:00.651Z,6.83
2018-05-29T00:02:27.146Z,6.13
2018-05-29T00:04:53.656Z,7.03
2018-05-29T00:07:20.141Z,7.17
2018-05-29T00:09:47.364Z,6.93
2018-05-29T00:12:13.897Z,7.00
2018-05-29T00:14:40.476Z,6.63
2018-05-29T00:17:07.147Z,7.50
2018-05-29T00:19:34.468Z,6.30
2018-05-29T00:22:01.041Z,7.30
2018-05-29T00:24:28.335Z,6.63
2018-05-29T00:26:54.946Z,7.20
2018-05-29T00:29:21.768Z,6.83
2018-05-29T00:31:49.120Z,6.80
2018-05-29T00:34:17.504Z,7.83
2018-05-29T00:36:44.860Z,6.67
2018-05-29T00:39:11.417Z,6.40
2018-05-29T00:41:38.981Z,6.83
2018-05-29T00:44:05.897Z,7.27
2018-05-29T00:46:32.763Z,7.50
2018-05-29T00:48:59.546Z,7.83
2018-05-29T00:51:27.086Z,6.40
2018-05-29T00:53:53.570Z,7.40
2018-05-29T00:56:20.095Z,8.20
2018-05-29T00:58:46.565Z,6.40
2018-05-29T01:01:13.122Z,7.10
2018-05-29T01:03:40.831Z,6.90
2018-05-29T01:06:08.413Z,7.23
2018-05-29T01:08:36.882Z,7.17
2018-05-29T01:11:04.294Z,7.27
2018-05-29T01:13:31.986Z,7.80
2018-05-29T01:15:58.602Z,7.03
2018-05-29T01:18:25.147Z,7.33
2018-05-29T01:23:43.537Z,7.50
2018-05-29T01:26:11.302Z,7.07
2018-05-29T01:28:37.783Z,7.50
2018-05-29T01:31:04.322Z,7.10
2018-05-29T01:33:30.846Z,8.30
2018-05-29T01:35:57.617Z,8.10
2018-05-29T01:38:24.393Z,7.33
2018-05-29T01:40:50.886Z,7.70
2018-05-29T01:43:17.663Z,7.77
2018-05-29T01:45:44.168Z,7.97
2018-05-29T01:48:10.642Z,8.80
2018-05-29T01:50:37.816Z,8.73
2018-05-29T01:53:04.697Z,8.40
2018-05-29T01:55:31.139Z,8.70
2018-05-29T01:57:58.099Z,8.10
2018-05-29T02:00:24.967Z,7.67
2018-05-29T02:02:51.594Z,7.83
2018-05-29T02:05:18.325Z,7.47
2018-05-29T02:07:44.841Z,9.10
2018-05-29T02:10:11.359Z,8.10
2018-05-29T02:12:38.288Z,7.60
2018-05-29T02:15:04.736Z,8.97
2018-05-29T02:17:31.466Z,8.20
2018-05-29T02:19:59.000Z,8.27
2018-05-29T02:22:26.132Z,8.30
2018-05-29T02:24:52.616Z,10.20
2018-05-29T02:27:19.042Z,8.97
2018-05-29T02:29:46.261Z,8.17
2018-05-29T02:44:13.170Z,9.83
2018-05-29T02:46:39.722Z,8.90
2018-05-29T02:49:06.883Z,8.90
2018-05-29T02:51:34.212Z,8.40
2018-05-29T02:54:01.645Z,10.17
2018-05-29T02:56:28.130Z,8.63
2018-05-29T02:58:56.955Z,8.93
2018-05-29T03:01:23.553Z,9.47
2018-05-29T03:03:51.656Z,9.33
2018-05-29T03:06:18.804Z,8.00
2018-05-29T03:08:45.449Z,8.63
2018-05-29T03:11:12.021Z,9.30
2018-05-29T03:13:39.006Z,9.50
2018-05-29T03:16:06.386Z,8.70
2018-05-29T03:18:33.602Z,9.10
2018-05-29T03:21:00.190Z,8.90
2018-05-29T03:23:26.618Z,8.33
2018-05-29T03:25:53.056Z,9.00
2018-05-29T03:28:20.238Z,9.20
2018-05-29T03:30:46.846Z,9.13
2018-05-29T03:33:14.333Z,8.73
2018-05-29T03:35:40.869Z,8.90
2018-05-29T03:38:07.301Z,8.60
2018-05-29T03:40:33.789Z,8.67
2018-05-29T03:43:00.301Z,9.63
2018-05-29T03:45:26.811Z,9.30
2018-05-29T03:47:53.723Z,9.40
2018-05-29T03:50:20.951Z,8.60
2018-05-29T03:52:48.383Z,8.60
2018-05-29T03:55:15.646Z,8.20
2018-05-29T03:57:42.149Z,9.47
2018-05-29T04:00:11.250Z,8.83
2018-05-29T04:02:38.205Z,8.43
2018-05-29T04:05:04.683Z,9.00
2018-05-29T04:07:31.917Z,7.93
2018-05-29T04:09:59.161Z,9.37
2018-05-29T04:12:28.177Z,8.23
2018-05-29T04:14:56.342Z,7.53
2018-05-29T04:17:22.782Z,8.80
2018-05-29T04:19:50.706Z,7.80
2018-05-29T04:22:17.127Z,8.10
2018-05-29T04:24:43.922Z,8.70
2018-05-29T04:27:11.524Z,8.27
2018-05-29T04:29:39.636Z,8.50
2018-05-29T04:32:06.509Z,8.33
2018-05-29T04:34:33.761Z,7.93
2018-05-29T04:37:01.038Z,8.30
2018-05-29T04:39:28.316Z,8.13
2018-05-29T04:41:57.359Z,8.40
2018-05-29T04:44:24.586Z,7.67
2018-05-29T04:46:51.454Z,7.77
2018-05-29T04:49:19.501Z,9.20
2018-05-29T04:51:46.024Z,7.97
2018-05-29T04:54:13.296Z,8.77
2018-05-29T04:56:40.193Z,7.50
2018-05-29T04:59:06.675Z,7.57
2018-05-29T05:01:34.162Z,7.63
2018-05-29T05:04:02.389Z,7.00
2018-05-29T05:06:29.235Z,7.77
2018-05-29T05:08:56.116Z,7.47
2018-05-29T05:11:23.116Z,8.23
2018-05-29T05:13:50.265Z,7.27
2018-05-29T05:16:17.674Z,7.43
2018-05-29T05:18:44.360Z,6.87
2018-05-29T05:21:11.664Z,7.53
2018-05-29T05:23:39.498Z,7.87
2018-05-29T05:26:08.054Z,7.47
2018-05-29T05:28:35.684Z,7.37
2018-05-29T05:31:05.136Z,8.50
2018-05-29T05:33:37.133Z,7.40
2018-05-29T05:36:06.173Z,7.47
2018-05-29T05:38:34.164Z,7.60
2018-05-29T05:41:02.770Z,7.30
2018-05-29T05:43:29.719Z,7.00
2018-05-29T05:45:56.855Z,7.10
2018-05-29T05:48:24.597Z,7.00
2018-05-29T05:50:52.640Z,7.37
2018-05-29T05:53:22.230Z,6.60
2018-05-29T05:55:54.554Z,7.03
2018-05-29T05:58:22.804Z,7.17
2018-05-29T06:00:49.303Z,7.60
2018-05-29T06:03:15.832Z,6.57
2018-05-29T06:05:42.232Z,7.27
2018-05-29T06:08:10.348Z,6.90
2018-05-29T06:10:37.650Z,7.00
2018-05-29T06:13:05.459Z,7.00
2018-05-29T06:15:32.472Z,6.80
2018-05-29T06:18:00.930Z,7.47
2018-05-29T06:20:28.209Z,7.13
2018-05-29T06:22:54.724Z,6.57
2018-05-29T06:25:22.018Z,7.07
2018-05-29T06:27:50.640Z,7.00
2018-05-29T06:30:17.794Z,7.40
2018-05-29T06:32:44.382Z,7.80
2018-05-29T06:35:12.299Z,8.30
2018-05-29T06:37:39.514Z,6.57
2018-05-29T06:40:06.456Z,7.10
2018-05-29T06:42:36.857Z,6.10
2018-05-29T06:45:05.800Z,6.87
2018-05-29T06:47:32.244Z,7.10
2018-05-29T06:49:59.330Z,7.47
2018-05-29T06:52:27.358Z,7.00
2018-05-29T06:54:54.636Z,6.83
2018-05-29T06:57:21.127Z,6.93
2018-05-29T06:59:47.504Z,7.40
2018-05-29T07:02:13.947Z,7.00
2018-05-29T07:04:40.453Z,6.97
2018-05-29T07:07:08.486Z,6.80
2018-05-29T07:09:35.600Z,6.23
2018-05-29T07:12:03.785Z,6.53
2018-05-29T07:14:30.786Z,7.37
2018-05-29T07:16:57.198Z,6.47
2018-05-29T07:19:23.623Z,6.00
2018-05-29T07:21:51.222Z,7.40
2018-05-29T07:24:21.760Z,7.20
2018-05-29T07:26:50.096Z,7.87
2018-05-29T07:29:16.612Z,6.80
2018-05-29T07:31:43.097Z,8.13
2018-05-29T07:34:09.998Z,7.27
2018-05-29T07:36:36.587Z,7.30
2018-05-29T07:39:04.853Z,6.77
2018-05-29T07:41:31.421Z,7.20
2018-05-29T07:44:00.069Z,6.53
2018-05-29T07:46:28.437Z,7.10
2018-05-29T07:48:55.214Z,6.30
2018-05-29T07:51:22.556Z,6.40
2018-05-29T07:53:50.206Z,6.57
2018-05-29T07:56:17.567Z,5.90
2018-05-29T07:58:44.050Z,7.10
2018-05-29T08:01:10.575Z,7.20
2018-05-29T08:03:37.095Z,7.20
2018-05-29T08:06:04.704Z,6.60
2018-05-29T08:08:32.891Z,5.70
2018-05-29T08:10:59.305Z,6.30
2018-05-29T08:13:25.972Z,5.90
2018-05-29T08:15:53.141Z,5.90
2018-05-29T08:18:19.640Z,5.87
2018-05-29T08:20:46.362Z,6.00
2018-05-29T08:23:13.081Z,6.50
2018-05-29T08:25:39.517Z,6.13
2018-05-29T08:28:06.170Z,5.60
2018-05-29T08:30:34.045Z,6.43
2018-05-29T08:33:02.160Z,5.60
2018-05-29T08:35:29.154Z,5.13
2018-05-29T08:37:55.829Z,5.57
2018-05-29T08:40:22.390Z,4.87
2018-05-29T08:42:49.910Z,5.53
2018-05-29T08:45:17.237Z,5.53
2018-05-29T08:47:44.174Z,5.33
2018-05-29T08:50:10.811Z,5.47
2018-05-29T08:52:39.055Z,5.93
2018-05-29T08:55:05.763Z,5.23
2018-05-29T08:57:32.691Z,5.47
2018-05-29T09:00:01.275Z,4.40
2018-05-29T09:02:28.767Z,5.60
2018-05-29T09:04:57.042Z,4.70
2018-05-29T09:07:23.493Z,4.70
2018-05-29T09:09:50.010Z,5.27
2018-05-29T09:12:18.728Z,5.40
2018-05-29T09:14:46.823Z,5.70
2018-05-29T09:17:13.658Z,5.60
2018-05-29T09:19:40.223Z,5.20
2018-05-29T09:22:06.709Z,5.30
2018-05-29T09:24:33.589Z,5.40
2018-05-29T09:27:00.263Z,4.83
2018-05-29T09:29:27.517Z,4.97
2018-05-29T09:31:54.115Z,4.33
2018-05-29T09:34:22.077Z,4.80
2018-05-29T09:36:48.968Z,5.30
2018-05-29T09:39:16.215Z,5.40
2018-05-29T09:41:43.513Z,4.60
2018-05-29T09:44:10.021Z,4.70
2018-05-29T09:46:36.531Z,4.90
2018-05-29T09:49:03.802Z,4.10
2018-05-29T09:51:30.271Z,4.70
2018-05-29T09:53:56.795Z,4.03
2018-05-29T09:56:23.222Z,4.80
2018-05-29T09:58:51.855Z,3.77
2018-05-29T10:01:19.249Z,3.60
2018-05-29T10:03:46.217Z,3.50
2018-05-29T10:06:12.915Z,4.00
2018-05-29T10:08:40.518Z,4.60
2018-05-29T10:11:09.862Z,3.40
2018-05-29T10:13:36.839Z,3.87
2018-05-29T10:16:05.173Z,3.83
2018-05-29T10:18:33.112Z,3.60
2018-05-29T10:21:01.077Z,4.20
2018-05-29T10:23:29.226Z,3.67
2018-05-29T10:25:55.781Z,3.43
2018-05-29T10:28:22.268Z,4.00
2018-05-29T10:30:50.896Z,3.57
2018-05-29T10:33:18.237Z,4.00
2018-05-29T10:35:44.969Z,4.03
2018-05-29T10:38:11.982Z,3.87
2018-05-29T10:40:39.139Z,3.67
2018-05-29T10:43:06.658Z,3.67
2018-05-29T10:45:34.666Z,4.17
2018-05-29T10:48:02.283Z,3.70
2018-05-29T10:50:28.809Z,4.37
2018-05-29T10:52:55.877Z,3.60
2018-05-29T10:55:22.722Z,4.00
2018-05-29T10:57:50.873Z,3.43
2018-05-29T11:00:20.944Z,4.30
2018-05-29T11:02:47.489Z,3.83
2018-05-29T11:05:14.466Z,3.57
2018-05-29T11:07:41.382Z,3.57
2018-05-29T11:10:08.112Z,3.70
2018-05-29T11:12:35.362Z,3.20
2018-05-29T11:15:02.972Z,3.87
2018-05-29T11:17:30.129Z,4.30
2018-05-29T11:19:57.791Z,3.60
2018-05-29T11:22:24.681Z,4.17
2018-05-29T11:24:59.120Z,4.23
2018-05-29T11:27:25.584Z,4.30
2018-05-29T11:29:53.520Z,4.00
2018-05-29T11:32:21.625Z,3.93
2018-05-29T11:34:48.126Z,3.70
2018-05-29T11:37:15.031Z,3.70
2018-05-29T11:39:41.533Z,3.53
2018-05-29T11:42:07.917Z,4.10
2018-05-29T11:44:34.602Z,4.23
2018-05-29T11:47:01.048Z,3.70
2018-05-29T11:49:27.542Z,4.03
2018-05-29T11:51:53.977Z,4.00
2018-05-29T11:54:21.378Z,3.23
2018-05-29T11:56:49.100Z,3.83
2018-05-29T11:59:17.917Z,4.10
2018-05-29T12:01:44.719Z,3.40
2018-05-29T12:04:11.200Z,3.90
2018-05-29T12:06:37.633Z,3.80
2018-05-29T12:09:05.134Z,4.60
2018-05-29T12:11:31.623Z,3.83
2018-05-29T12:13:58.286Z,3.43
2018-05-29T12:16:26.367Z,3.37
2018-05-29T12:18:53.240Z,4.13
2018-05-29T12:21:21.379Z,2.70
2018-05-29T12:23:48.997Z,3.43
2018-05-29T12:26:15.649Z,3.00
2018-05-29T12:28:42.154Z,3.80
2018-05-29T12:31:10.312Z,3.60
2018-05-29T12:33:37.933Z,3.40
2018-05-29T12:36:04.543Z,3.80
2018-05-29T12:38:30.965Z,3.60
2018-05-29T12:40:57.578Z,4.10
2018-05-29T12:43:24.839Z,4.27
2018-05-29T12:45:51.471Z,3.23
2018-05-29T12:48:18.068Z,3.30
2018-05-29T12:50:44.718Z,3.10
2018-05-29T12:53:11.644Z,3.30
2018-05-29T12:55:38.900Z,3.80
2018-05-29T12:58:07.389Z,3.20
2018-05-29T13:00:35.461Z,3.60
2018-05-29T13:03:04.077Z,3.60
2018-05-29T13:05:30.550Z,3.70
2018-05-29T13:07:57.096Z,3.67
2018-05-29T13:10:23.816Z,3.10
2018-05-29T13:12:50.821Z,3.60
2018-05-29T13:15:17.734Z,3.10
2018-05-29T13:17:45.681Z,3.93
2018-05-29T13:20:13.251Z,3.33
2018-05-29T13:22:46.534Z,3.93
2018-05-29T13:25:14.584Z,4.97
2018-05-29T13:27:41.625Z,3.00
2018-05-29T13:30:09.960Z,3.87
2018-05-29T13:32:38.886Z,3.50
2018-05-29T13:35:05.551Z,3.23
2018-05-29T13:37:32.910Z,3.40
2018-05-29T13:40:00.693Z,3.83
2018-05-29T13:42:28.288Z,3.57
2018-05-29T13:44:55.338Z,3.70
2018-05-29T13:47:26.970Z,3.70
2018-05-29T13:49:53.480Z,3.83
2018-05-29T13:52:20.250Z,3.17
2018-05-29T13:54:46.917Z,3.57
2018-05-29T13:57:13.572Z,3.90
2018-05-29T13:59:40.541Z,3.73
2018-05-29T14:02:06.939Z,3.40
2018-05-29T14:04:33.551Z,3.37
2018-05-29T14:07:01.111Z,4.20
2018-05-29T14:09:29.116Z,3.90
2018-05-29T14:11:55.488Z,3.30
2018-05-29T14:14:21.961Z,3.40
2018-05-29T14:16:48.895Z,3.30
2018-05-29T14:19:15.646Z,4.07
2018-05-29T14:21:42.732Z,3.63
2018-05-29T14:24:10.464Z,3.27
2018-05-29T14:26:36.918Z,4.27
2018-05-29T14:29:03.470Z,3.20
2018-05-29T14:31:30.095Z,3.40
2018-05-29T14:33:57.254Z,3.57
2018-05-29T14:36:23.757Z,3.10
2018-05-29T14:38:50.653Z,3.70
2018-05-29T14:41:18.702Z,3.43
2018-05-29T14:43:45.265Z,3.17
2018-05-29T14:46:12.397Z,2.87
2018-05-29T14:48:40.535Z,3.00
2018-05-29T14:51:09.579Z,3.33
2018-05-29T14:53:39.212Z,3.27
2018-05-29T14:56:06.654Z,3.43
2018-05-29T14:58:33.239Z,3.10
2018-05-29T15:01:01.642Z,3.90
2018-05-29T15:03:28.280Z,3.90
2018-05-29T15:05:56.599Z,3.90
2018-05-29T15:08:25.020Z,3.10
2018-05-29T15:10:53.311Z,3.40
2018-05-29T15:13:20.883Z,3.70
2018-05-29T15:15:49.963Z,3.80
2018-05-29T15:18:16.491Z,3.97
2018-05-29T15:20:44.625Z,3.20
2018-05-29T15:23:11.095Z,3.50
2018-05-29T15:25:37.626Z,3.73
2018-05-29T15:28:04.623Z,3.20
2018-05-29T15:30:42.023Z,4.07
2018-05-29T15:33:09.333Z,3.30
2018-05-29T15:35:38.561Z,3.13
2018-05-29T15:38:06.742Z,2.93
2018-05-29T15:40:33.405Z,3.10
2018-05-29T15:43:00.682Z,3.03
2018-05-29T15:45:27.658Z,3.27
2018-05-29T15:47:54.287Z,3.43
2018-05-29T15:50:22.369Z,3.73
2018-05-29T15:53:04.284Z,3.07
2018-05-29T15:55:31.589Z,2.87
2018-05-29T15:58:00.660Z,3.17
2018-05-29T16:00:27.725Z,3.60
2018-05-29T16:02:54.291Z,3.43
2018-05-29T16:05:22.611Z,2.97
2018-05-29T16:07:50.085Z,2.87
2018-05-29T16:10:18.643Z,3.97
2018-05-29T16:12:45.790Z,3.53
2018-05-29T16:15:14.138Z,3.00
2018-05-29T16:17:43.339Z,2.80
2018-05-29T16:20:12.827Z,2.90
2018-05-29T16:22:39.353Z,3.20
2018-05-29T16:25:06.776Z,3.17
2018-05-29T16:27:34.159Z,2.90
2018-05-29T16:30:02.497Z,3.23
2018-05-29T16:32:30.921Z,3.10
2018-05-29T16:35:00.233Z,3.10
2018-05-29T16:37:27.181Z,3.47
2018-05-29T16:39:54.655Z,3.33
2018-05-29T16:42:21.968Z,3.10
2018-05-29T16:44:50.198Z,3.00
2018-05-29T16:47:16.816Z,3.60
2018-05-29T16:49:43.799Z,2.93
2018-05-29T16:52:12.373Z,3.30
2018-05-29T16:54:39.918Z,3.13
2018-05-29T16:57:06.996Z,3.23
2018-05-29T16:59:36.032Z,2.93
2018-05-29T17:02:03.166Z,2.87
2018-05-29T17:04:31.696Z,3.27
2018-05-29T17:06:58.942Z,3.30
2018-05-29T17:09:25.944Z,3.70
2018-05-29T17:11:52.852Z,3.03
2018-05-29T17:14:19.606Z,3.70
2018-05-29T17:16:50.470Z,3.50
2018-05-29T17:19:18.763Z,2.70
2018-05-29T17:21:47.752Z,2.87
2018-05-29T17:24:15.637Z,3.17
2018-05-29T17:26:43.196Z,3.37
2018-05-29T17:29:10.724Z,3.27
2018-05-29T17:31:38.390Z,3.23
2018-05-29T17:34:05.546Z,3.40
2018-05-29T17:36:32.192Z,3.20
2018-05-29T17:38:58.975Z,3.30
2018-05-29T17:41:26.121Z,3.97
2018-05-29T17:43:53.376Z,3.80
2018-05-29T17:46:19.810Z,3.77
2018-05-29T17:48:46.538Z,2.73
2018-05-29T17:51:13.395Z,3.07
2018-05-29T17:53:41.398Z,3.27
2018-05-29T17:56:08.715Z,3.17
2018-05-29T17:58:36.093Z,4.20
2018-05-29T18:01:03.787Z,3.80
2018-05-29T18:03:31.193Z,3.30
2018-05-29T18:05:58.744Z,3.80
2018-05-29T18:08:28.431Z,3.60
2018-05-29T18:10:58.454Z,3.50
2018-05-29T18:13:25.308Z,3.90
2018-05-29T18:16:04.045Z,3.50
2018-05-29T18:18:39.167Z,3.23
2018-05-29T18:21:06.239Z,3.60
2018-05-29T18:23:33.707Z,3.10
2018-05-29T18:26:00.305Z,4.20
2018-05-29T18:28:27.128Z,3.57
2018-05-29T18:30:53.555Z,4.07
2018-05-29T18:35:51.617Z,4.23
2018-05-29T18:38:19.347Z,3.90
2018-05-29T18:40:48.337Z,3.77
2018-05-29T18:43:15.381Z,3.13
2018-05-29T18:45:45.467Z,3.70
2018-05-29T18:48:14.605Z,3.17
2018-05-29T18:50:47.583Z,3.70
2018-05-29T18:53:14.911Z,3.53
2018-05-29T18:55:41.520Z,4.13
2018-05-29T18:58:08.395Z,3.30
2018-05-29T19:00:35.777Z,3.73
2018-05-29T19:03:02.946Z,3.60
2018-05-29T19:05:29.506Z,3.80
2018-05-29T19:07:56.944Z,3.60
2018-05-29T19:10:24.557Z,3.83
2018-05-29T19:12:53.908Z,3.40
2018-05-29T19:15:20.785Z,3.37
2018-05-29T19:17:49.124Z,3.87
2018-05-29T19:20:15.660Z,3.20
2018-05-29T19:22:43.168Z,3.63
2018-05-29T19:25:09.710Z,3.60
2018-05-29T19:27:37.079Z,3.37
2018-05-29T19:30:04.219Z,3.80
2018-05-29T19:32:36.385Z,3.23
2018-05-29T19:35:05.554Z,4.33
2018-05-29T19:37:32.281Z,3.83
2018-05-29T19:40:01.362Z,5.00
2018-05-29T19:42:28.774Z,4.40
2018-05-29T19:44:55.374Z,4.13
2018-05-29T19:47:24.007Z,4.00
2018-05-29T19:49:51.133Z,3.80
2018-05-29T19:52:17.698Z,4.13
2018-05-29T19:54:44.983Z,3.93
2018-05-29T19:57:11.442Z,3.80
2018-05-29T19:59:39.383Z,4.30
2018-05-29T20:02:06.561Z,3.83
2018-05-29T20:04:35.316Z,4.20
2018-05-29T20:07:03.671Z,4.57
2018-05-29T20:09:32.049Z,3.87
2018-05-29T20:11:58.670Z,4.20
2018-05-29T20:14:25.907Z,5.20
2018-05-29T20:16:52.371Z,3.70
2018-05-29T20:19:19.294Z,3.87
2018-05-29T20:21:45.829Z,4.40
2018-05-29T20:24:12.502Z,4.60
2018-05-29T20:26:39.008Z,4.80
2018-05-29T20:29:05.554Z,4.83
2018-05-29T20:31:32.370Z,4.03
2018-05-29T20:33:59.978Z,3.70
2018-05-29T20:36:27.636Z,4.30
2018-05-29T20:38:54.236Z,3.90
2018-05-29T20:41:22.760Z,4.27
2018-05-29T20:43:49.299Z,5.30
2018-05-29T20:46:16.569Z,4.40
2018-05-29T20:48:44.239Z,4.00
2018-05-29T20:51:12.176Z,4.30
2018-05-29T20:56:11.647Z,4.30
2018-05-29T20:58:38.167Z,4.30
2018-05-29T21:01:04.714Z,4.70
2018-05-29T21:03:31.217Z,4.40
2018-05-29T21:05:59.428Z,4.33
2018-05-29T21:08:26.501Z,4.30
2018-05-29T21:10:53.171Z,3.73
2018-05-29T21:13:22.702Z,3.83
2018-05-29T21:15:49.897Z,4.73
2018-05-29T21:18:17.021Z,3.93
2018-05-29T21:20:43.881Z,6.90
2018-05-29T21:23:10.848Z,4.67
2018-05-29T21:25:38.212Z,4.57
2018-05-29T21:28:04.622Z,4.60
2018-05-29T21:30:32.780Z,4.20
2018-05-29T21:32:59.466Z,4.20
2018-05-29T21:35:26.737Z,5.20
2018-05-29T21:37:53.155Z,5.23
2018-05-29T21:40:19.536Z,4.47
2018-05-29T21:42:46.415Z,4.60
2018-05-29T21:45:13.538Z,4.80
2018-05-29T21:47:40.017Z,4.53
2018-05-29T21:50:06.493Z,4.60
2018-05-29T21:52:32.934Z,4.10
2018-05-29T21:54:59.674Z,4.60
2018-05-29T21:57:26.828Z,4.60
2018-05-29T21:59:53.252Z,4.37
2018-05-29T22:02:21.301Z,4.80
2018-05-29T22:04:47.781Z,4.33
2018-05-29T22:07:14.282Z,4.67
2018-05-29T22:09:40.983Z,4.80
2018-05-29T22:12:07.909Z,4.77
2018-05-29T22:14:34.467Z,4.90
2018-05-29T22:17:01.043Z,5.00
2018-05-29T22:19:27.971Z,4.50
2018-05-29T22:21:55.141Z,4.80
2018-05-29T22:24:21.701Z,4.93
2018-05-29T22:26:49.698Z,4.70
2018-05-29T22:29:16.345Z,5.20
2018-05-29T22:31:43.964Z,5.40
2018-05-29T22:34:10.654Z,4.63
2018-05-29T22:36:37.178Z,4.80
2018-05-29T22:39:04.858Z,5.50
2018-05-29T22:41:32.720Z,4.90
2018-05-29T22:43:59.569Z,4.73
2018-05-29T22:46:26.914Z,6.10
2018-05-29T22:48:54.104Z,4.83
2018-05-29T22:51:20.839Z,4.70
2018-05-29T22:53:47.651Z,5.17
2018-05-29T22:56:15.145Z,5.30
2018-05-29T22:58:41.756Z,5.23
2018-05-29T23:01:09.511Z,4.80
2018-05-29T23:03:37.292Z,5.17
2018-05-29T23:06:05.104Z,5.50
2018-05-29T23:08:33.806Z,5.10
2018-05-29T23:11:00.489Z,5.00
2018-05-29T23:13:27.403Z,4.90
2018-05-29T23:15:54.960Z,5.70
2018-05-29T23:18:22.571Z,4.87
2018-05-29T23:20:49.199Z,5.50
2018-05-29T23:23:17.095Z,5.40
2018-05-29T23:25:43.654Z,6.00
2018-05-29T23:28:10.325Z,5.10
2018-05-29T23:30:37.657Z,5.23
2018-05-29T23:33:04.664Z,5.27
2018-05-29T23:35:31.850Z,5.47
2018-05-29T23:37:59.414Z,5.60
2018-05-29T23:40:26.413Z,5.00
2018-05-29T23:42:53.734Z,5.00
2018-05-29T23:45:20.930Z,4.40
2018-05-29T23:47:47.441Z,5.27
2018-05-29T23:50:13.875Z,5.60
2018-05-29T23:52:41.619Z,5.30
2018-05-29T23:55:08.754Z,4.83
2018-05-29T23:57:35.223Z,7.30
